createdAt,value
2017-10-19T00:02:25.430Z,99700.61
2017-10-19T00:04:51.761Z,99702.82
2017-10-19T00:07:18.113Z,99700.83
2017-10-19T00:09:45.135Z,99705.09
2017-10-19T00:12:11.508Z,99703.90
2017-10-19T00:14:37.927Z,99701.90
2017-10-19T00:17:04.349Z,99704.05
2017-10-19T00:19:30.667Z,99706.64
2017-10-19T00:21:57.082Z,99701.58
2017-10-19T00:24:23.436Z,99705.22
2017-10-19T00:26:49.766Z,99696.70
2017-10-19T00:29:16.103Z,99700.11
2017-10-19T00:31:42.384Z,99703.21
2017-10-19T00:34:08.698Z,99709.47
2017-10-19T00:36:35.816Z,99710.06
2017-10-19T00:39:02.139Z,99710.22
2017-10-19T00:41:28.472Z,99708.70
2017-10-19T00:43:54.859Z,99712.84
2017-10-19T00:46:21.410Z,99709.02
2017-10-19T00:48:47.729Z,99713.41
2017-10-19T00:51:14.107Z,99711.48
2017-10-19T00:53:40.446Z,99705.46
2017-10-19T00:56:06.805Z,99702.51
2017-10-19T00:58:33.113Z,99706.30
2017-10-19T01:00:59.459Z,99705.30
2017-10-19T01:03:26.559Z,99700.72
2017-10-19T01:05:52.959Z,99700.80
2017-10-19T01:08:19.399Z,99705.42
2017-10-19T01:10:45.763Z,99707.69
2017-10-19T01:13:12.113Z,99706.11
2017-10-19T01:15:38.460Z,99706.13
2017-10-19T01:18:04.904Z,99705.05
2017-10-19T01:20:31.945Z,99708.48
2017-10-19T01:22:59.094Z,99709.86
2017-10-19T01:25:26.444Z,99704.81
2017-10-19T01:27:52.827Z,99701.23
2017-10-19T01:30:19.783Z,99705.15
2017-10-19T01:32:46.258Z,99692.06
2017-10-19T01:35:13.337Z,99694.70
2017-10-19T01:37:40.605Z,99709.53
2017-10-19T01:40:06.992Z,99709.95
2017-10-19T01:42:33.353Z,99706.27
2017-10-19T01:45:00.433Z,99713.56
2017-10-19T01:47:26.781Z,99709.42
2017-10-19T01:49:59.078Z,99707.55
2017-10-19T01:52:25.472Z,99711.17
2017-10-19T01:54:51.904Z,99706.58
2017-10-19T01:57:18.266Z,99710.52
2017-10-19T01:59:44.601Z,99706.22
2017-10-19T02:02:10.976Z,99712.34
2017-10-19T02:04:37.307Z,99715.33
2017-10-19T02:07:03.804Z,99710.63
2017-10-19T02:09:30.127Z,99710.05
2017-10-19T02:11:56.459Z,99713.78
2017-10-19T02:14:22.787Z,99713.45
2017-10-19T02:16:49.137Z,99711.85
2017-10-19T02:19:15.489Z,99712.70
2017-10-19T02:21:42.573Z,99723.11
2017-10-19T02:24:09.111Z,99717.52
2017-10-19T02:26:35.466Z,99725.86
2017-10-19T02:29:01.788Z,99712.03
2017-10-19T02:31:28.150Z,99717.50
2017-10-19T02:33:55.275Z,99726.73
2017-10-19T02:36:21.618Z,99732.86
2017-10-19T02:38:47.989Z,99736.09
2017-10-19T02:41:14.350Z,99733.28
2017-10-19T02:43:40.702Z,99732.39
2017-10-19T02:46:07.048Z,99735.37
2017-10-19T02:48:33.395Z,99735.95
2017-10-19T02:50:59.742Z,99734.84
2017-10-19T02:53:26.132Z,99731.70
2017-10-19T02:55:52.598Z,99733.44
2017-10-19T02:58:18.917Z,99728.97
2017-10-19T03:00:45.979Z,99734.05
2017-10-19T03:03:12.354Z,99727.18
2017-10-19T03:05:38.804Z,99734.80
2017-10-19T03:08:05.252Z,99736.98
2017-10-19T03:10:31.602Z,99735.99
2017-10-19T03:12:58.748Z,99738.03
2017-10-19T03:15:25.867Z,99739.34
2017-10-19T03:17:53.185Z,99731.12
2017-10-19T03:20:19.611Z,99744.69
2017-10-19T03:22:45.929Z,99741.39
2017-10-19T03:25:13.005Z,99745.37
2017-10-19T03:27:39.487Z,99746.14
2017-10-19T03:30:05.937Z,99745.73
2017-10-19T03:32:32.441Z,99745.50
2017-10-19T03:34:58.841Z,99737.65
2017-10-19T03:37:25.206Z,99741.90
2017-10-19T03:39:52.449Z,99741.78
2017-10-19T03:42:19.826Z,99738.91
2017-10-19T03:44:46.345Z,99734.92
2017-10-19T03:47:12.898Z,99739.22
2017-10-19T03:49:39.532Z,99744.66
2017-10-19T03:52:06.061Z,99753.27
2017-10-19T03:54:32.612Z,99743.05
2017-10-19T03:56:58.965Z,99748.41
2017-10-19T03:59:26.269Z,99746.77
2017-10-19T04:01:52.620Z,99747.05
2017-10-19T04:04:18.958Z,99740.82
2017-10-19T04:06:45.335Z,99742.78
2017-10-19T04:09:11.663Z,99744.67
2017-10-19T04:11:37.988Z,99730.25
2017-10-19T04:14:04.401Z,99740.83
2017-10-19T04:16:30.741Z,99740.52
2017-10-19T04:18:57.191Z,99737.25
2017-10-19T04:21:23.635Z,99738.25
2017-10-19T04:23:50.073Z,99732.59
2017-10-19T04:26:16.463Z,99736.68
2017-10-19T04:28:43.652Z,99737.29
2017-10-19T04:31:10.066Z,99731.25
2017-10-19T04:33:37.276Z,99733.41
2017-10-19T04:36:03.762Z,99729.75
2017-10-19T04:38:30.178Z,99736.91
2017-10-19T04:40:56.813Z,99735.75
2017-10-19T04:43:30.330Z,99739.58
2017-10-19T04:45:56.889Z,99735.50
2017-10-19T04:48:23.315Z,99738.62
2017-10-19T04:50:49.960Z,99739.20
2017-10-19T04:53:16.325Z,99740.85
2017-10-19T04:55:43.700Z,99734.78
2017-10-19T04:58:10.033Z,99733.17
2017-10-19T05:00:36.408Z,99733.33
2017-10-19T05:03:02.748Z,99728.19
2017-10-19T05:05:29.112Z,99732.80
2017-10-19T05:07:55.469Z,99733.27
2017-10-19T05:10:22.580Z,99738.94
2017-10-19T05:12:48.958Z,99739.45
2017-10-19T05:15:15.596Z,99745.19
2017-10-19T05:17:42.082Z,99743.75
2017-10-19T05:20:08.546Z,99741.08
2017-10-19T05:22:34.994Z,99741.95
2017-10-19T05:25:01.550Z,99746.64
2017-10-19T05:27:27.944Z,99747.40
2017-10-19T05:29:54.387Z,99741.66
2017-10-19T05:32:21.474Z,99747.63
2017-10-19T05:34:47.940Z,99748.78
2017-10-19T05:37:16.189Z,99751.40
2017-10-19T05:39:42.555Z,99753.15
2017-10-19T05:42:09.257Z,99753.57
2017-10-19T05:44:35.602Z,99746.58
2017-10-19T05:47:01.968Z,99759.47
2017-10-19T05:49:28.278Z,99752.93
2017-10-19T05:51:54.649Z,99752.47
2017-10-19T05:54:21.947Z,99759.88
2017-10-19T05:56:48.444Z,99763.12
2017-10-19T05:59:14.858Z,99764.86
2017-10-19T06:01:41.302Z,99765.78
2017-10-19T06:04:07.757Z,99766.99
2017-10-19T06:06:34.172Z,99762.77
2017-10-19T06:09:01.678Z,99765.06
2017-10-19T06:11:28.031Z,99776.97
2017-10-19T06:13:54.378Z,99770.31
2017-10-19T06:16:20.729Z,99772.69
2017-10-19T06:18:47.807Z,99778.67
2017-10-19T06:21:14.177Z,99780.07
2017-10-19T06:23:40.627Z,99779.39
2017-10-19T06:26:07.345Z,99792.92
2017-10-19T06:28:33.687Z,99789.41
2017-10-19T06:31:00.195Z,99786.73
2017-10-19T06:33:26.561Z,99791.55
2017-10-19T06:35:53.822Z,99792.69
2017-10-19T06:38:20.178Z,99797.17
2017-10-19T06:40:47.264Z,99804.14
2017-10-19T06:43:14.658Z,99808.92
2017-10-19T06:45:41.762Z,99810.92
2017-10-19T06:48:08.210Z,99812.70
2017-10-19T06:50:34.592Z,99809.05
2017-10-19T06:53:01.891Z,99800.94
2017-10-19T06:55:28.322Z,99806.53
2017-10-19T06:57:55.744Z,99809.34
2017-10-19T07:00:22.269Z,99815.95
2017-10-19T07:02:49.362Z,99811.84
2017-10-19T07:05:15.712Z,99814.57
2017-10-19T07:07:42.081Z,99818.26
2017-10-19T07:10:09.187Z,99814.16
2017-10-19T07:12:35.543Z,99816.63
2017-10-19T07:15:01.923Z,99816.89
2017-10-19T07:17:28.289Z,99808.04
2017-10-19T07:19:54.585Z,99818.86
2017-10-19T07:22:21.008Z,99836.47
2017-10-19T07:24:47.387Z,99821.34
2017-10-19T07:27:13.666Z,99816.52
2017-10-19T07:29:40.973Z,99816.41
2017-10-19T07:32:07.267Z,99819.50
2017-10-19T07:34:33.566Z,99822.84
2017-10-19T07:37:00.580Z,99825.08
2017-10-19T07:39:26.883Z,99828.20
2017-10-19T07:41:53.242Z,99821.17
2017-10-19T07:44:19.552Z,99827.42
2017-10-19T07:46:46.301Z,99825.61
2017-10-19T07:49:12.648Z,99828.53
2017-10-19T07:51:38.980Z,99831.54
2017-10-19T07:54:05.458Z,99835.06
2017-10-19T07:56:32.532Z,99839.19
2017-10-19T07:58:58.896Z,99831.67
2017-10-19T08:01:25.237Z,99838.88
2017-10-19T08:03:52.187Z,99838.07
2017-10-19T08:06:18.510Z,99840.30
2017-10-19T08:08:44.793Z,99842.84
2017-10-19T08:11:11.177Z,99843.98
2017-10-19T08:13:37.473Z,99836.66
2017-10-19T08:16:04.261Z,99832.91
2017-10-19T08:18:30.567Z,99832.70
2017-10-19T08:20:56.963Z,99833.70
2017-10-19T08:23:23.290Z,99837.91
2017-10-19T08:25:49.672Z,99842.19
2017-10-19T08:28:16.278Z,99841.41
2017-10-19T08:30:42.820Z,99843.79
2017-10-19T08:33:09.191Z,99850.16
2017-10-19T08:35:35.606Z,99846.00
2017-10-19T08:38:02.016Z,99841.39
2017-10-19T08:40:28.404Z,99847.64
2017-10-19T08:42:55.477Z,99851.58
2017-10-19T08:45:21.852Z,99847.57
2017-10-19T08:47:48.280Z,99849.51
2017-10-19T08:50:14.690Z,99861.34
2017-10-19T08:52:40.992Z,99845.96
2017-10-19T08:55:08.112Z,99844.43
2017-10-19T08:57:34.488Z,99843.81
2017-10-19T09:00:00.847Z,99832.52
2017-10-19T09:02:27.135Z,99839.69
2017-10-19T09:04:54.185Z,99837.62
2017-10-19T09:07:20.474Z,99846.18
2017-10-19T09:09:46.815Z,99837.71
2017-10-19T09:12:13.103Z,99842.06
2017-10-19T09:14:39.466Z,99835.52
2017-10-19T09:17:05.881Z,99840.53
2017-10-19T09:19:32.233Z,99842.95
2017-10-19T09:21:58.591Z,99843.95
2017-10-19T09:24:25.677Z,99837.80
2017-10-19T09:26:52.050Z,99838.98
2017-10-19T09:29:18.347Z,99842.20
2017-10-19T09:31:44.798Z,99846.09
2017-10-19T09:34:11.073Z,99838.98
2017-10-19T09:36:38.256Z,99841.03
2017-10-19T09:39:04.687Z,99843.95
2017-10-19T09:41:30.957Z,99843.59
2017-10-19T09:43:57.340Z,99846.72
2017-10-19T09:46:23.639Z,99845.65
2017-10-19T09:48:50.009Z,99838.03
2017-10-19T09:51:16.463Z,99846.50
2017-10-19T09:53:42.938Z,99839.30
2017-10-19T09:56:10.138Z,99840.09
2017-10-19T09:58:36.508Z,99844.14
2017-10-19T10:01:02.842Z,99837.72
2017-10-19T10:03:29.267Z,99842.78
2017-10-19T10:05:55.706Z,99839.38
2017-10-19T10:08:22.036Z,99836.83
2017-10-19T10:10:48.488Z,99840.55
2017-10-19T10:13:14.832Z,99838.91
2017-10-19T10:15:42.014Z,99834.22
2017-10-19T10:18:08.373Z,99839.09
2017-10-19T10:20:34.659Z,99835.50
2017-10-19T10:23:01.049Z,99842.89
2017-10-19T10:25:27.474Z,99844.39
2017-10-19T10:27:53.932Z,99836.17
2017-10-19T10:30:20.296Z,99845.39
2017-10-19T10:32:46.651Z,99834.37
2017-10-19T10:35:12.961Z,99838.87
2017-10-19T10:37:39.354Z,99840.57
2017-10-19T10:40:06.407Z,99834.95
2017-10-19T10:42:32.746Z,99833.92
2017-10-19T10:44:59.887Z,99823.05
2017-10-19T10:47:26.318Z,99833.40
2017-10-19T10:49:53.418Z,99825.97
2017-10-19T10:52:19.732Z,99829.28
2017-10-19T10:54:46.217Z,99828.24
2017-10-19T10:57:12.548Z,99818.22
2017-10-19T10:59:39.804Z,99818.69
2017-10-19T11:02:06.370Z,99813.84
2017-10-19T11:04:33.490Z,99816.34
2017-10-19T11:06:59.820Z,99812.91
2017-10-19T11:09:26.204Z,99810.83
2017-10-19T11:11:52.496Z,99816.38
2017-10-19T11:14:18.824Z,99811.06
2017-10-19T11:16:45.150Z,99813.23
2017-10-19T11:19:11.516Z,99818.80
2017-10-19T11:21:38.638Z,99818.80
2017-10-19T11:24:04.967Z,99819.96
2017-10-19T11:26:31.442Z,99814.05
2017-10-19T11:28:57.756Z,99818.38
2017-10-19T11:31:24.853Z,99813.48
2017-10-19T11:33:51.134Z,99818.91
2017-10-19T11:36:18.182Z,99818.22
2017-10-19T11:38:45.255Z,99814.08
2017-10-19T11:41:11.575Z,99817.72
2017-10-19T11:43:38.669Z,99810.23
2017-10-19T11:46:04.960Z,99814.55
2017-10-19T11:48:31.258Z,99811.61
2017-10-19T11:50:58.405Z,99807.95
2017-10-19T11:53:24.762Z,99803.17
2017-10-19T11:55:51.110Z,99794.83
2017-10-19T11:58:17.471Z,99798.04
2017-10-19T12:00:43.925Z,99802.08
2017-10-19T12:03:10.308Z,99798.30
2017-10-19T12:05:37.425Z,99796.67
2017-10-19T12:08:05.464Z,99802.03
2017-10-19T12:10:31.937Z,99796.25
2017-10-19T12:12:59.075Z,99796.80
2017-10-19T12:15:25.441Z,99797.81
2017-10-19T12:17:51.760Z,99795.79
2017-10-19T12:20:19.910Z,99789.14
2017-10-19T12:22:46.360Z,99796.75
2017-10-19T12:25:13.420Z,99788.10
2017-10-19T12:27:39.750Z,99779.11
2017-10-19T12:30:06.938Z,99782.63
2017-10-19T12:32:33.306Z,99773.15
2017-10-19T12:34:59.619Z,99774.06
2017-10-19T12:37:25.969Z,99777.73
2017-10-19T12:39:52.300Z,99771.81
2017-10-19T12:42:18.566Z,99773.45
2017-10-19T12:44:44.883Z,99770.08
2017-10-19T12:47:12.003Z,99778.20
2017-10-19T12:49:38.342Z,99770.95
2017-10-19T12:52:04.640Z,99767.47
2017-10-19T12:54:31.206Z,99780.75
2017-10-19T12:56:57.673Z,99779.61
2017-10-19T12:59:24.026Z,99774.98
2017-10-19T13:01:50.637Z,99777.31
2017-10-19T13:04:17.891Z,99770.13
2017-10-19T13:06:44.329Z,99767.50
2017-10-19T13:09:10.693Z,99756.81
2017-10-19T13:11:37.279Z,99764.73
2017-10-19T13:14:04.393Z,99751.89
2017-10-19T13:16:30.745Z,99756.84
2017-10-19T13:18:57.165Z,99764.37
2017-10-19T13:21:23.506Z,99761.12
2017-10-19T13:23:49.828Z,99761.89
2017-10-19T13:26:16.168Z,99761.33
2017-10-19T13:28:43.255Z,99766.56
2017-10-19T13:31:10.142Z,99768.26
2017-10-19T13:33:36.414Z,99763.99
2017-10-19T13:36:04.380Z,99760.81
2017-10-19T13:38:31.467Z,99754.48
2017-10-19T13:40:57.811Z,99756.48
2017-10-19T13:43:31.234Z,99753.03
2017-10-19T13:45:57.697Z,99752.37
2017-10-19T13:48:24.890Z,99751.19
2017-10-19T13:50:51.220Z,99749.47
2017-10-19T13:53:17.902Z,99746.30
2017-10-19T13:55:44.240Z,99735.32
2017-10-19T13:58:10.558Z,99740.02
2017-10-19T14:00:37.203Z,99736.88
2017-10-19T14:03:03.558Z,99739.58
2017-10-19T14:05:30.691Z,99740.33
2017-10-19T14:07:57.947Z,99742.81
2017-10-19T14:10:24.381Z,99735.03
2017-10-19T14:12:50.929Z,99734.31
2017-10-19T14:15:19.010Z,99737.68
2017-10-19T14:17:45.324Z,99728.73
2017-10-19T14:20:12.435Z,99731.33
2017-10-19T14:22:38.793Z,99733.84
2017-10-19T14:25:05.099Z,99727.22
2017-10-19T14:27:31.457Z,99727.35
2017-10-19T14:29:57.964Z,99732.88
2017-10-19T14:32:24.303Z,99739.33
2017-10-19T14:34:50.625Z,99738.83
2017-10-19T14:37:16.886Z,99734.48
2017-10-19T14:39:43.277Z,99733.37
2017-10-19T14:42:09.627Z,99739.72
2017-10-19T14:44:35.958Z,99737.20
2017-10-19T14:47:02.341Z,99730.80
2017-10-19T14:49:28.774Z,99723.34
2017-10-19T14:51:55.106Z,99722.89
2017-10-19T14:54:21.440Z,99725.70
2017-10-19T14:56:47.842Z,99720.14
2017-10-19T14:59:14.983Z,99715.11
2017-10-19T15:01:41.498Z,99717.44
2017-10-19T15:04:07.910Z,99723.08
2017-10-19T15:06:34.329Z,99713.19
2017-10-19T15:09:00.730Z,99709.84
2017-10-19T15:11:27.019Z,99716.19
2017-10-19T15:13:53.306Z,99713.25
2017-10-19T15:16:20.329Z,99717.33
2017-10-19T15:18:46.760Z,99715.45
2017-10-19T15:21:13.287Z,99708.88
2017-10-19T15:23:39.790Z,99716.77
2017-10-19T15:26:06.101Z,99717.16
2017-10-19T15:28:32.819Z,99720.95
2017-10-19T15:30:59.867Z,99720.66
2017-10-19T15:33:26.906Z,99720.63
2017-10-19T15:35:53.195Z,99716.23
2017-10-19T15:38:19.526Z,99712.70
2017-10-19T15:40:45.861Z,99717.34
2017-10-19T15:43:12.258Z,99717.47
2017-10-19T15:45:39.381Z,99711.76
2017-10-19T15:48:05.690Z,99712.59
2017-10-19T15:50:32.034Z,99718.59
2017-10-19T15:52:58.440Z,99710.13
2017-10-19T15:55:24.802Z,99714.25
2017-10-19T15:57:51.240Z,99718.14
2017-10-19T16:00:17.603Z,99715.23
2017-10-19T16:02:43.924Z,99726.20
2017-10-19T16:05:10.976Z,99729.63
2017-10-19T16:07:38.089Z,99729.43
2017-10-19T16:10:04.408Z,99717.67
2017-10-19T16:12:30.722Z,99728.11
2017-10-19T16:14:57.111Z,99741.07
2017-10-19T16:17:24.177Z,99740.55
2017-10-19T16:19:50.541Z,99740.66
2017-10-19T16:22:16.851Z,99743.08
2017-10-19T16:24:44.150Z,99740.34
2017-10-19T16:27:10.518Z,99741.78
2017-10-19T16:29:37.623Z,99745.30
2017-10-19T16:32:03.980Z,99739.89
2017-10-19T16:34:31.028Z,99745.87
2017-10-19T16:36:57.329Z,99736.72
2017-10-19T16:39:23.657Z,99739.38
2017-10-19T16:41:50.032Z,99742.13
2017-10-19T16:44:21.415Z,99740.95
2017-10-19T16:46:50.313Z,99751.66
2017-10-19T16:51:50.872Z,99756.16
2017-10-19T16:54:17.164Z,99747.58
2017-10-19T16:56:43.512Z,99750.56
2017-10-19T16:59:10.011Z,99742.05
2017-10-19T17:01:37.154Z,99750.83
2017-10-19T17:04:04.546Z,99748.26
2017-10-19T17:06:31.054Z,99741.38
2017-10-19T17:08:58.163Z,99750.78
2017-10-19T17:11:24.475Z,99742.89
2017-10-19T17:13:50.821Z,99742.83
2017-10-19T17:16:17.292Z,99748.95
2017-10-19T17:18:43.668Z,99747.93
2017-10-19T17:21:10.060Z,99753.70
2017-10-19T17:23:36.385Z,99758.84
2017-10-19T17:26:02.842Z,99767.16
2017-10-19T17:28:30.065Z,99763.05
2017-10-19T17:30:58.210Z,99761.44
2017-10-19T17:33:24.735Z,99757.84
2017-10-19T17:35:51.078Z,99764.27
2017-10-19T17:38:18.267Z,99759.80
2017-10-19T17:40:44.719Z,99761.73
2017-10-19T17:43:11.826Z,99762.05
2017-10-19T17:45:38.298Z,99752.86
2017-10-19T17:48:05.378Z,99756.78
2017-10-19T17:50:31.750Z,99755.23
2017-10-19T17:52:58.136Z,99757.94
2017-10-19T17:55:24.504Z,99753.64
2017-10-19T17:57:50.889Z,99758.59
2017-10-19T18:00:17.237Z,99747.52
2017-10-19T18:02:43.533Z,99740.44
2017-10-19T18:05:09.887Z,99745.22
2017-10-19T18:07:36.233Z,99750.27
2017-10-19T18:10:03.250Z,99747.70
2017-10-19T18:12:30.335Z,99748.03
2017-10-19T18:14:56.686Z,99752.75
2017-10-19T18:17:22.996Z,99753.52
2017-10-19T18:19:49.303Z,99758.72
2017-10-19T18:22:15.582Z,99757.24
2017-10-19T18:24:41.924Z,99752.59
2017-10-19T18:27:09.844Z,99757.08
2017-10-19T18:29:36.257Z,99758.61
2017-10-19T18:32:03.347Z,99760.19
2017-10-19T18:34:29.691Z,99757.20
2017-10-19T18:36:55.958Z,99763.90
2017-10-19T18:39:22.299Z,99758.99
2017-10-19T18:41:49.366Z,99757.36
2017-10-19T18:44:15.760Z,99762.04
2017-10-19T18:46:42.251Z,99761.08
2017-10-19T18:49:08.705Z,99760.66
2017-10-19T18:51:35.048Z,99757.96
2017-10-19T18:54:01.388Z,99747.97
2017-10-19T18:56:27.747Z,99754.69
2017-10-19T18:58:54.129Z,99750.18
2017-10-19T19:01:20.926Z,99757.66
2017-10-19T19:03:48.382Z,99754.61
2017-10-19T19:06:15.640Z,99760.34
2017-10-19T19:08:42.031Z,99757.36
2017-10-19T19:11:08.528Z,99758.83
2017-10-19T19:13:35.987Z,99748.05
2017-10-19T19:16:04.774Z,99750.31
2017-10-19T19:18:31.153Z,99743.22
2017-10-19T19:20:58.279Z,99746.05
2017-10-19T19:23:24.715Z,99751.05
2017-10-19T19:25:51.427Z,99750.83
2017-10-19T19:28:17.957Z,99756.25
2017-10-19T19:30:44.315Z,99756.86
2017-10-19T19:33:11.424Z,99757.58
2017-10-19T19:35:38.570Z,99758.55
2017-10-19T19:38:06.522Z,99765.95
2017-10-19T19:40:33.560Z,99761.28
2017-10-19T19:42:59.992Z,99765.98
2017-10-19T19:45:26.361Z,99766.42
2017-10-19T19:47:52.843Z,99765.12
2017-10-19T19:50:19.147Z,99761.77
2017-10-19T19:52:45.505Z,99766.13
2017-10-19T19:55:11.793Z,99763.98
2017-10-19T19:57:39.108Z,99763.67
2017-10-19T20:00:05.440Z,99769.21
2017-10-19T20:02:31.875Z,99768.20
2017-10-19T20:04:58.196Z,99776.11
2017-10-19T20:07:24.489Z,99773.55
2017-10-19T20:09:50.890Z,99774.94
2017-10-19T20:12:17.966Z,99777.94
2017-10-19T20:14:44.296Z,99774.71
2017-10-19T20:17:10.598Z,99771.53
2017-10-19T20:19:37.670Z,99780.03
2017-10-19T20:22:04.116Z,99777.83
2017-10-19T20:24:30.605Z,99777.23
2017-10-19T20:26:57.028Z,99775.13
2017-10-19T20:29:23.477Z,99771.42
2017-10-19T20:31:49.784Z,99772.84
2017-10-19T20:34:16.077Z,99778.11
2017-10-19T20:36:42.551Z,99787.27
2017-10-19T20:39:08.890Z,99773.33
2017-10-19T20:41:35.440Z,99779.08
2017-10-19T20:44:01.900Z,99769.21
2017-10-19T20:46:28.260Z,99776.92
2017-10-19T20:48:54.583Z,99771.59
2017-10-19T20:51:21.068Z,99773.97
2017-10-19T20:53:47.381Z,99775.48
2017-10-19T20:56:13.755Z,99778.88
2017-10-19T20:58:40.076Z,99770.59
2017-10-19T21:01:07.235Z,99776.56
2017-10-19T21:03:33.797Z,99775.31
2017-10-19T21:06:00.217Z,99780.84
2017-10-19T21:08:26.827Z,99774.70
2017-10-19T21:10:53.911Z,99775.90
2017-10-19T21:13:20.314Z,99768.70
2017-10-19T21:15:47.489Z,99769.61
2017-10-19T21:18:13.816Z,99763.63
2017-10-19T21:20:40.175Z,99764.11
2017-10-19T21:23:06.700Z,99767.27
2017-10-19T21:25:33.064Z,99766.63
2017-10-19T21:27:59.461Z,99765.59
2017-10-19T21:30:25.826Z,99758.05
2017-10-19T21:32:52.326Z,99761.28
2017-10-19T21:35:18.694Z,99760.16
2017-10-19T21:37:45.045Z,99754.92
2017-10-19T21:40:11.381Z,99755.21
2017-10-19T21:42:37.787Z,99761.11
2017-10-19T21:45:04.207Z,99754.02
2017-10-19T21:47:30.690Z,99745.58
2017-10-19T21:49:57.758Z,99744.94
2017-10-19T21:52:24.115Z,99746.12
2017-10-19T21:54:50.533Z,99743.13
2017-10-19T21:57:16.868Z,99732.53
2017-10-19T21:59:43.210Z,99737.53
2017-10-19T22:02:09.604Z,99732.62
2017-10-19T22:04:36.721Z,99733.72
2017-10-19T22:07:03.089Z,99730.18
2017-10-19T22:09:29.963Z,99714.37
2017-10-19T22:11:56.309Z,99731.16
2017-10-19T22:14:22.673Z,99722.49
2017-10-19T22:16:48.973Z,99723.26
2017-10-19T22:19:15.361Z,99721.58
2017-10-19T22:21:42.424Z,99717.97
2017-10-19T22:24:08.801Z,99714.59
2017-10-19T22:26:35.165Z,99709.13
2017-10-19T22:29:02.218Z,99707.30
2017-10-19T22:31:29.368Z,99707.88
2017-10-19T22:33:55.685Z,99709.30
2017-10-19T22:36:22.126Z,99701.23
2017-10-19T22:38:49.279Z,99702.59
2017-10-19T22:41:15.617Z,99704.13
2017-10-19T22:43:42.754Z,99706.54
2017-10-19T22:46:09.914Z,99708.41
2017-10-19T22:48:36.995Z,99714.52
2017-10-19T22:51:03.400Z,99710.59
2017-10-19T22:53:30.509Z,99708.06
2017-10-19T22:55:56.810Z,99706.88
2017-10-19T22:58:23.141Z,99701.61
2017-10-19T23:00:49.494Z,99704.14
2017-10-19T23:03:16.657Z,99706.77
2017-10-19T23:05:43.056Z,99702.05
2017-10-19T23:08:09.455Z,99698.94
2017-10-19T23:10:36.573Z,99698.70
2017-10-19T23:13:02.960Z,99690.52
2017-10-19T23:15:29.338Z,99696.61
2017-10-19T23:17:55.663Z,99694.83
2017-10-19T23:20:22.170Z,99693.98
2017-10-19T23:22:48.529Z,99694.53
2017-10-19T23:25:14.923Z,99698.88
2017-10-19T23:27:41.311Z,99699.05
2017-10-19T23:30:07.670Z,99692.05
2017-10-19T23:32:34.798Z,99693.29
2017-10-19T23:35:01.264Z,99694.20
2017-10-19T23:37:27.619Z,99692.79
2017-10-19T23:39:53.982Z,99694.34
2017-10-19T23:42:20.330Z,99697.02
2017-10-19T23:44:46.834Z,99696.89
2017-10-19T23:47:13.179Z,99705.35
2017-10-19T23:49:39.594Z,99706.11
2017-10-19T23:52:05.949Z,99702.65
2017-10-19T23:54:32.322Z,99705.02
2017-10-19T23:56:58.660Z,99706.23
2017-10-19T23:59:25.019Z,99702.72
